Puerto Lumbreras, Spain
Current Conditions -  °F | °C
As of 9:00 PM on Sunday 25 Jan 2015 (Local Time) from LELC Reporting Station
Clear Clear  
Wind Chill: 48°   Ceiling: Unl
Heat Index: 48°   Visibility: 6mi
Dew Point: 39°   Wind: 3mph
Humidity: 71%   Direction: 250°WSW
Pressure: 30.21"   Gusts: NA
Location:  37.56°N, 1.81°W
Report Text: LELC 252000Z 25003KT CAVOK 09/04 Q1023 NOSIG
Loading
Personal Weather Stations






























Interactive Weather Map New forecast layout! Learn more

10-Day Weather Forecast

Advertisements
Track Severe Weather on mobile